Time;durP1;ratioP1;P1;durP2;ratioP2;P2;SDS_P1;SDS_P2;PMS_P1;PMS_P2;Temp;Humidity;BMP_temperature;BMP_pressure;BME280_temperature;BME280_humidity;BME280_pressure;Samples;Min_cycle;Max_cycle;Signal;HPM_P1;HPM_P2
2022/10/24 00:00:03;;;;;;;8.15;2.33;;;14.90;90.20;;;;;;5053327;28;20062;-47
2022/10/24 00:02:28;;;;;;;9.45;4.13;;;14.90;90.20;;;;;;5052208;28;20029;-50
2022/10/24 00:04:54;;;;;;;13.90;2.28;;;14.90;90.10;;;;;;5053200;28;20123;-48
2022/10/24 00:07:19;;;;;;;6.57;2.78;;;15.20;89.30;;;;;;5053404;28;20127;-47
2022/10/24 00:09:45;;;;;;;10.50;2.58;;;15.10;89.10;;;;;;5053005;28;20350;-48
2022/10/24 00:12:11;;;;;;;10.88;2.72;;;15.10;89.20;;;;;;5053091;28;20021;-48
2022/10/24 00:14:36;;;;;;;6.45;2.70;;;15.20;88.80;;;;;;5051623;28;20428;-48
2022/10/24 00:17:03;;;;;;;8.27;2.53;;;15.30;87.90;;;;;;5052892;28;20029;-49
2022/10/24 00:19:28;;;;;;;14.52;2.00;;;15.30;87.90;;;;;;5052996;28;20029;-47
2022/10/24 00:21:54;;;;;;;9.65;3.08;;;15.30;87.20;;;;;;5052917;28;20110;-48
2022/10/24 00:24:23;;;;;;;7.40;2.45;;;15.20;87.60;;;;;;5052562;28;20021;-47
2022/10/24 00:26:49;;;;;;;16.75;2.53;;;15.30;87.60;;;;;;5051910;28;20056;-51
2022/10/24 00:29:14;;;;;;;7.55;2.33;;;15.40;87.00;;;;;;5053448;28;20147;-47
2022/10/24 00:31:40;;;;;;;8.98;2.60;;;15.30;87.10;;;;;;5052783;28;20029;-48
2022/10/24 00:34:07;;;;;;;3.47;2.50;;;15.40;86.70;;;;;;5053238;28;20368;-48
2022/10/24 00:36:33;;;;;;;8.60;2.58;;;15.30;86.90;;;;;;5052742;28;20017;-48
2022/10/24 00:38:59;;;;;;;17.27;4.78;;;15.30;87.20;;;;;;5052748;28;20083;-48
2022/10/24 00:41:33;;;;;;;6.63;2.53;;;15.20;87.00;;;;;;5052698;28;20375;-48
2022/10/24 00:44:27;;;;;;;8.32;2.78;;;15.10;87.30;;;;;;5052644;28;20136;-50
2022/10/24 00:46:58;;;;;;;7.05;3.38;;;14.90;87.80;;;;;;5054277;28;20029;-49
2022/10/24 00:49:43;;;;;;;6.95;2.15;;;15.00;87.90;;;;;;5056725;28;20107;-48
2022/10/24 00:52:12;;;;;;;4.05;1.90;;;15.00;88.00;;;;;;5057283;28;20021;-49
2022/10/24 00:54:40;;;;;;;8.10;2.33;;;15.00;87.50;;;;;;5056705;28;20121;-55
2022/10/24 00:57:18;;;;;;;9.82;3.28;;;14.90;87.90;;;;;;5056718;28;20060;-48
2022/10/24 00:59:47;;;;;;;10.85;3.05;;;15.10;87.40;;;;;;5056507;28;20351;-50
2022/10/24 01:02:12;;;;;;;10.52;2.50;;;15.00;87.40;;;;;;5055121;28;20496;-49
2022/10/24 01:04:38;;;;;;;8.05;2.63;;;15.10;87.50;;;;;;5056237;28;20021;-48
2022/10/24 01:07:38;;;;;;;9.80;3.35;;;15.10;86.80;;;;;;5056204;28;20358;-52
2022/10/24 01:10:25;;;;;;;10.40;2.63;;;15.10;86.80;;;;;;5056603;28;20087;-49
2022/10/24 01:13:31;;;;;;;11.05;2.95;;;15.00;87.20;;;;;;5056572;28;20036;-48
2022/10/24 01:16:22;;;;;;;5.78;2.60;;;15.20;86.00;;;;;;5054286;28;20493;-49
2022/10/24 01:18:54;;;;;;;6.30;2.67;;;15.10;86.30;;;;;;5056488;28;20066;-48
2022/10/24 01:21:27;;;;;;;11.48;4.32;;;15.20;86.50;;;;;;5055917;28;20093;-49
2022/10/24 01:24:02;;;;;;;6.07;2.45;;;15.30;85.50;;;;;;5056048;28;20076;-47
2022/10/24 01:26:40;;;;;;;13.27;2.95;;;15.30;85.60;;;;;;5055703;28;20049;-48
2022/10/24 01:29:32;;;;;;;10.45;2.95;;;15.30;85.40;;;;;;5054534;28;20499;-52
2022/10/24 01:32:17;;;;;;;9.88;4.38;;;15.30;85.00;;;;;;5051368;28;20025;-48
2022/10/24 01:35:01;;;;;;;16.33;2.60;;;15.40;84.20;;;;;;5055770;28;20373;-50
2022/10/24 01:37:40;;;;;;;5.25;2.10;;;15.60;83.30;;;;;;5055787;28;20013;-53
2022/10/24 01:40:19;;;;;;;10.90;2.83;;;15.80;82.20;;;;;;5055828;28;20047;-49
2022/10/24 01:42:48;;;;;;;4.78;1.88;;;15.90;81.30;;;;;;5054485;28;20017;-47
2022/10/24 01:45:20;;;;;;;5.90;2.22;;;16.20;80.20;;;;;;5055665;28;20102;-47
2022/10/24 01:47:52;;;;;;;8.95;2.60;;;16.20;79.90;;;;;;5056018;28;20017;-48
2022/10/24 01:50:21;;;;;;;5.78;1.92;;;16.10;80.10;;;;;;5055935;28;20075;-51
2022/10/24 01:52:48;;;;;;;7.28;2.35;;;16.30;79.50;;;;;;5055524;28;20032;-47
2022/10/24 01:55:14;;;;;;;7.85;2.90;;;16.30;79.10;;;;;;5055497;28;20035;-48
2022/10/24 01:57:41;;;;;;;8.27;2.33;;;16.30;79.00;;;;;;5053604;28;20439;-48
2022/10/24 02:00:14;;;;;;;3.55;1.85;;;16.30;79.20;;;;;;5055410;28;20049;-47
2022/10/24 02:02:47;;;;;;;5.00;1.85;;;16.30;79.20;;;;;;5055733;28;20035;-49
2022/10/24 02:05:19;;;;;;;7.72;2.42;;;16.30;79.50;;;;;;5055494;28;20128;-47
2022/10/24 02:07:48;;;;;;;3.00;1.85;;;16.30;79.10;;;;;;5054110;28;20048;-47
2022/10/24 02:10:28;;;;;;;6.10;2.05;;;16.30;79.40;;;;;;5055178;28;20032;-48
2022/10/24 02:13:04;;;;;;;9.05;2.03;;;16.30;79.30;;;;;;5055391;28;20029;-50
2022/10/24 02:15:35;;;;;;;8.52;2.00;;;16.30;79.30;;;;;;5055168;28;20425;-49
2022/10/24 02:18:01;;;;;;;7.25;3.75;;;16.40;78.90;;;;;;5055080;28;20027;-48
2022/10/24 02:20:32;;;;;;;4.15;2.25;;;16.30;79.10;;;;;;5055509;28;20036;-49
2022/10/24 02:23:09;;;;;;;3.72;1.73;;;16.40;78.80;;;;;;5054976;28;20017;-47
2022/10/24 02:25:40;;;;;;;5.13;2.40;;;16.30;79.40;;;;;;5054615;28;20446;-47
2022/10/24 02:28:11;;;;;;;7.22;2.75;;;16.30;79.20;;;;;;5055000;28;20021;-47
2022/10/24 02:30:49;;;;;;;4.68;2.30;;;16.30;79.30;;;;;;5055159;28;20021;-48
2022/10/24 02:33:16;;;;;;;4.82;2.10;;;16.20;79.90;;;;;;5054841;28;20036;-47
2022/10/24 02:35:44;;;;;;;8.82;2.08;;;16.30;79.50;;;;;;5054696;28;20025;-47
2022/10/24 02:38:25;;;;;;;6.72;2.78;;;16.30;79.50;;;;;;5054699;28;20029;-47
2022/10/24 02:40:52;;;;;;;6.95;2.33;;;16.30;79.20;;;;;;5056196;28;20051;-47
2022/10/24 02:43:20;;;;;;;6.78;2.65;;;16.20;79.20;;;;;;5053452;28;20036;-47
2022/10/24 02:45:48;;;;;;;5.10;1.83;;;16.10;80.10;;;;;;5054708;28;20491;-47
2022/10/24 02:48:19;;;;;;;8.18;2.40;;;16.20;79.20;;;;;;5053138;28;20029;-49
2022/10/24 02:50:45;;;;;;;13.32;2.72;;;16.30;78.30;;;;;;5053139;28;20025;-47
2022/10/24 02:53:13;;;;;;;5.93;1.80;;;16.20;79.10;;;;;;5054365;28;20096;-50
2022/10/24 02:55:40;;;;;;;9.45;3.00;;;16.20;78.90;;;;;;5052977;28;20039;-46
2022/10/24 02:58:05;;;;;;;3.60;1.85;;;16.20;78.70;;;;;;5054343;28;20025;-51
2022/10/24 03:00:31;;;;;;;8.90;2.80;;;16.30;78.40;;;;;;5055523;28;20077;-47
2022/10/24 03:02:57;;;;;;;4.03;2.00;;;16.30;78.00;;;;;;5054168;28;20362;-48
2022/10/24 03:05:23;;;;;;;2.95;1.88;;;16.30;77.60;;;;;;5052709;28;20389;-47
2022/10/24 03:07:48;;;;;;;4.97;2.20;;;16.30;77.70;;;;;;5054364;28;20136;-47
2022/10/24 03:10:14;;;;;;;3.72;1.65;;;16.40;77.00;;;;;;5053392;28;20440;-47
2022/10/24 03:12:40;;;;;;;7.00;2.08;;;16.60;75.70;;;;;;5054437;28;20450;-48
2022/10/24 03:15:06;;;;;;;6.43;1.40;;;16.60;75.60;;;;;;5053884;28;20063;-47
2022/10/24 03:17:31;;;;;;;11.02;2.33;;;16.60;75.60;;;;;;5053889;28;20083;-48
2022/10/24 03:19:57;;;;;;;6.68;2.30;;;16.40;76.10;;;;;;5054568;28;20445;-50
2022/10/24 03:22:23;;;;;;;7.72;3.03;;;16.50;75.70;;;;;;5054365;28;20021;-47
2022/10/24 03:24:48;;;;;;;16.20;2.50;;;16.60;75.10;;;;;;5053551;28;20072;-48
2022/10/24 03:27:14;;;;;;;3.75;1.52;;;16.50;75.40;;;;;;5053681;28;20079;-48
2022/10/24 03:29:39;;;;;;;3.25;1.63;;;16.60;74.80;;;;;;5052397;28;20436;-48
2022/10/24 03:32:05;;;;;;;8.15;2.60;;;16.60;74.90;;;;;;5053902;28;20460;-47
2022/10/24 03:34:31;;;;;;;5.32;1.85;;;16.70;74.40;;;;;;5053589;28;20095;-47
2022/10/24 03:36:57;;;;;;;3.08;1.48;;;16.80;73.80;;;;;;5053727;28;20033;-48
2022/10/24 03:39:23;;;;;;;3.63;1.35;;;16.70;74.00;;;;;;5053475;28;20028;-48
2022/10/24 03:41:48;;;;;;;6.32;2.10;;;16.80;73.80;;;;;;5053436;28;20419;-47
2022/10/24 03:44:14;;;;;;;4.53;1.60;;;16.80;73.60;;;;;;5052417;28;20051;-47
2022/10/24 03:46:40;;;;;;;1.60;1.50;;;16.80;73.40;;;;;;5053359;28;20025;-48
2022/10/24 03:49:05;;;;;;;13.60;1.88;;;16.70;74.30;;;;;;5051997;28;20021;-47
2022/10/24 03:51:31;;;;;;;7.78;2.45;;;16.60;74.20;;;;;;5053828;28;20048;-47
2022/10/24 03:53:57;;;;;;;9.43;2.35;;;16.50;74.90;;;;;;5053592;28;20025;-50
2022/10/24 03:56:22;;;;;;;6.05;2.17;;;16.60;74.80;;;;;;5053440;28;20032;-51
2022/10/24 03:58:48;;;;;;;8.23;1.92;;;16.30;75.80;;;;;;5053100;28;20139;-48
2022/10/24 04:01:16;;;;;;;2.97;1.63;;;16.40;75.90;;;;;;5053062;28;20033;-49
2022/10/24 04:03:44;;;;;;;5.10;1.88;;;16.30;76.00;;;;;;5053313;28;20473;-48
2022/10/24 04:06:10;;;;;;;9.68;2.28;;;16.30;76.20;;;;;;5052917;28;20469;-47
2022/10/24 04:08:36;;;;;;;7.78;2.55;;;16.40;76.10;;;;;;5052972;28;20033;-47
2022/10/24 04:11:02;;;;;;;14.45;2.60;;;16.40;76.20;;;;;;5053927;28;20025;-47
2022/10/24 04:13:28;;;;;;;6.82;1.80;;;16.40;76.00;;;;;;5052858;28;20029;-47
2022/10/24 04:15:53;;;;;;;6.10;1.58;;;16.30;75.90;;;;;;5053184;28;20108;-48
2022/10/24 04:18:19;;;;;;;14.80;2.22;;;16.50;75.30;;;;;;5052919;28;20022;-48
2022/10/24 04:20:44;;;;;;;5.80;2.03;;;16.50;75.30;;;;;;5052703;28;20370;-47
2022/10/24 04:23:10;;;;;;;6.32;1.80;;;16.50;75.60;;;;;;5053362;28;20033;-49
2022/10/24 04:25:36;;;;;;;5.15;1.70;;;16.40;75.70;;;;;;5052619;28;20449;-47
2022/10/24 04:28:02;;;;;;;5.60;2.45;;;16.40;75.70;;;;;;5052836;28;20079;-49
2022/10/24 04:30:28;;;;;;;10.90;1.30;;;16.40;75.50;;;;;;5051425;28;20021;-47
2022/10/24 04:32:55;;;;;;;5.55;1.83;;;16.50;75.20;;;;;;5052607;28;20040;-48
2022/10/24 04:35:21;;;;;;;7.20;2.10;;;16.60;74.80;;;;;;5052814;28;20017;-47
2022/10/24 04:37:47;;;;;;;5.72;1.60;;;16.50;75.40;;;;;;5052625;28;20108;-47
2022/10/24 04:40:12;;;;;;;8.00;1.92;;;16.60;74.60;;;;;;5052630;28;20040;-48
2022/10/24 04:42:38;;;;;;;6.50;1.70;;;16.80;73.90;;;;;;5052844;28;20106;-49
2022/10/24 04:45:05;;;;;;;8.77;2.10;;;16.70;74.30;;;;;;5052714;28;20373;-47
2022/10/24 04:47:30;;;;;;;4.43;2.13;;;16.60;74.30;;;;;;5052519;28;20036;-47
2022/10/24 04:49:56;;;;;;;7.47;2.25;;;16.70;74.20;;;;;;5052489;28;20020;-47
2022/10/24 04:52:22;;;;;;;3.67;1.00;;;16.40;75.10;;;;;;5052579;28;20470;-48
2022/10/24 04:54:47;;;;;;;7.13;2.13;;;16.40;75.30;;;;;;5052489;28;20032;-48
2022/10/24 04:57:13;;;;;;;8.05;2.03;;;16.40;75.50;;;;;;5052392;28;20051;-48
2022/10/24 04:59:39;;;;;;;6.95;2.08;;;16.30;75.70;;;;;;5052659;28;20043;-49
2022/10/24 05:02:04;;;;;;;8.60;3.50;;;16.30;75.40;;;;;;5052415;28;20017;-47
2022/10/24 05:04:30;;;;;;;7.75;1.90;;;16.20;75.90;;;;;;5052280;28;20028;-47
2022/10/24 05:06:56;;;;;;;6.57;2.80;;;16.20;76.00;;;;;;5052298;28;20414;-50
2022/10/24 05:09:21;;;;;;;5.65;2.00;;;16.40;75.30;;;;;;5052521;28;20082;-48
2022/10/24 05:11:47;;;;;;;5.78;1.50;;;16.40;74.60;;;;;;5052371;28;20021;-48
2022/10/24 05:14:13;;;;;;;2.92;1.75;;;16.40;74.50;;;;;;5052281;28;20096;-47
2022/10/24 05:16:39;;;;;;;3.95;1.85;;;16.50;74.20;;;;;;5052264;28;20025;-47
2022/10/24 05:19:05;;;;;;;4.50;1.65;;;16.30;74.70;;;;;;5053004;28;20341;-48
2022/10/24 05:21:32;;;;;;;2.17;1.33;;;16.40;74.40;;;;;;5052375;28;20037;-51
2022/10/24 05:23:57;;;;;;;7.72;1.67;;;16.30;74.80;;;;;;5052018;28;20029;-47
2022/10/24 05:26:23;;;;;;;7.07;1.55;;;16.40;74.40;;;;;;5051936;28;20055;-47
2022/10/24 05:28:49;;;;;;;16.23;2.22;;;16.60;73.60;;;;;;5052019;28;20465;-47
2022/10/24 05:31:14;;;;;;;7.80;1.67;;;16.60;73.60;;;;;;5050793;28;20032;-47
2022/10/24 05:33:40;;;;;;;9.82;1.95;;;16.60;73.10;;;;;;5054426;28;20025;-48
2022/10/24 05:36:06;;;;;;;4.95;1.45;;;16.80;72.00;;;;;;5055604;28;20029;-47
2022/10/24 05:38:31;;;;;;;7.38;1.60;;;16.70;72.20;;;;;;5055695;28;20056;-47
2022/10/24 05:40:57;;;;;;;13.07;2.10;;;16.70;72.30;;;;;;5055402;28;20048;-48
2022/10/24 05:43:23;;;;;;;5.20;1.70;;;16.60;72.70;;;;;;5054259;28;20422;-49
2022/10/24 05:45:48;;;;;;;7.70;1.98;;;16.40;73.40;;;;;;5055623;28;20025;-50
2022/10/24 05:48:15;;;;;;;4.82;1.23;;;16.60;72.70;;;;;;5055445;28;20021;-48
2022/10/24 05:50:41;;;;;;;14.32;2.45;;;16.60;72.60;;;;;;5055582;28;20020;-48
2022/10/24 05:53:08;;;;;;;6.85;1.33;;;16.70;72.50;;;;;;5055524;28;20498;-48
2022/10/24 05:55:35;;;;;;;3.45;1.45;;;16.50;73.10;;;;;;5055246;28;20129;-47
2022/10/24 16:39:15;;;;;;;12.88;4.97;;;13.80;93.40;;;;;;5071513;28;20405;-50
2022/10/24 16:41:44;;;;;;;18.23;4.55;;;13.80;93.50;;;;;;5070582;28;20025;-49
2022/10/24 16:44:11;;;;;;;17.98;5.38;;;13.80;93.40;;;;;;5070306;28;20032;-49
2022/10/24 16:46:37;;;;;;;15.52;3.63;;;13.90;93.40;;;;;;5070163;28;20035;-49
2022/10/24 16:49:03;;;;;;;8.60;4.20;;;14.00;93.50;;;;;;5070676;28;20381;-50
2022/10/24 16:51:30;;;;;;;13.93;3.05;;;14.00;93.30;;;;;;5070324;28;20021;-48
2022/10/24 16:53:57;;;;;;;12.57;3.28;;;14.10;93.30;;;;;;5071717;28;20024;-50
2022/10/24 16:56:23;;;;;;;13.05;3.45;;;14.10;93.20;;;;;;5070752;28;20036;-48
2022/10/24 16:58:49;;;;;;;22.77;5.32;;;14.10;93.10;;;;;;5070504;28;20392;-51
2022/10/24 17:01:15;;;;;;;12.75;3.42;;;14.10;93.00;;;;;;5070443;28;20143;-49
2022/10/24 17:03:43;;;;;;;9.15;2.78;;;14.10;92.90;;;;;;5070528;28;20028;-48
2022/10/24 17:06:10;;;;;;;11.98;4.35;;;14.00;93.00;;;;;;5069098;28;20032;-51
2022/10/24 17:08:35;;;;;;;18.00;5.85;;;14.00;93.00;;;;;;5070403;28;20025;-49
2022/10/24 17:11:02;;;;;;;16.15;4.22;;;14.00;93.00;;;;;;5069940;28;20472;-50
2022/10/24 17:13:28;;;;;;;10.75;4.30;;;14.10;93.00;;;;;;5070228;28;20029;-50
2022/10/24 17:15:54;;;;;;;19.92;4.63;;;14.10;92.80;;;;;;5069621;28;20499;-50
2022/10/24 17:18:22;;;;;;;20.38;4.55;;;14.20;92.70;;;;;;5069702;28;20496;-50
2022/10/24 17:20:48;;;;;;;7.80;3.28;;;14.20;92.70;;;;;;5069961;28;20350;-49
2022/10/24 17:23:19;;;;;;;11.30;3.17;;;14.30;92.50;;;;;;5069467;28;20033;-50
2022/10/24 17:25:45;;;;;;;17.85;4.22;;;14.30;92.30;;;;;;5069713;28;20029;-48
2022/10/24 17:28:13;;;;;;;11.45;3.92;;;14.20;92.20;;;;;;5068238;28;20345;-48
2022/10/24 17:30:38;;;;;;;11.60;3.13;;;14.30;92.10;;;;;;5070325;28;20048;-49
2022/10/24 17:33:04;;;;;;;15.38;4.03;;;14.20;92.10;;;;;;5069478;28;20083;-53
2022/10/24 17:35:31;;;;;;;14.80;5.85;;;14.20;92.10;;;;;;5071929;28;20025;-50
2022/10/24 17:38:27;;;;;;;9.77;2.78;;;14.20;92.10;;;;;;5072809;28;20124;-39
2022/10/24 17:40:56;;;;;;;9.68;3.70;;;14.20;92.10;;;;;;5073052;28;20031;-40
2022/10/24 17:43:24;;;;;;;12.15;4.75;;;14.20;92.00;;;;;;5071489;28;20101;-40
2022/10/24 17:45:52;;;;;;;16.08;3.45;;;14.30;92.20;;;;;;5070204;28;20117;-49
2022/10/24 17:48:18;;;;;;;11.52;3.38;;;14.30;92.00;;;;;;5068628;28;20500;-40
2022/10/24 17:50:45;;;;;;;14.00;3.22;;;14.30;91.90;;;;;;5058902;28;20488;-40
2022/10/24 17:53:13;;;;;;;10.48;2.90;;;14.30;91.80;;;;;;5057660;28;20024;-39
2022/10/24 17:55:40;;;;;;;19.40;4.53;;;14.30;91.70;;;;;;5060016;28;20032;-50
2022/10/24 17:58:06;;;;;;;10.43;3.72;;;14.30;91.60;;;;;;5022007;28;20186;-47
2022/10/24 18:00:32;;;;;;;9.00;2.75;;;14.30;91.60;;;;;;5055784;28;20489;-50
2022/10/24 18:02:58;;;;;;;11.00;2.60;;;14.30;91.60;;;;;;5054007;28;20033;-49
2022/10/24 18:05:24;;;;;;;14.68;3.22;;;14.30;91.40;;;;;;5055261;28;20043;-49
2022/10/24 18:07:51;;;;;;;13.38;2.67;;;14.30;91.30;;;;;;5055157;28;20021;-50
2022/10/24 18:10:17;;;;;;;11.27;2.33;;;14.30;91.30;;;;;;5056554;28;20025;-48
2022/10/24 18:12:43;;;;;;;11.65;2.90;;;14.30;90.80;;;;;;5055829;28;20522;-47
2022/10/24 18:15:12;;;;;;;10.88;2.67;;;14.30;91.00;;;;;;5055585;28;20032;-48
2022/10/24 18:17:38;;;;;;;14.73;2.90;;;14.20;91.00;;;;;;5055730;28;20061;-51
2022/10/24 18:20:05;;;;;;;11.75;2.67;;;14.20;91.20;;;;;;5054317;28;20045;-49
2022/10/24 18:22:33;;;;;;;14.48;2.40;;;14.20;91.20;;;;;;5055049;28;20448;-49
2022/10/24 18:24:59;;;;;;;13.05;2.83;;;14.10;91.30;;;;;;5055611;28;20469;-50
2022/10/24 18:27:25;;;;;;;14.18;4.22;;;14.00;91.40;;;;;;5055558;28;20027;-50
2022/10/24 18:29:51;;;;;;;12.30;2.75;;;13.90;91.60;;;;;;5055670;28;20025;-47
2022/10/24 18:32:18;;;;;;;7.60;2.35;;;13.90;91.50;;;;;;5055043;28;20021;-49
2022/10/24 18:34:44;;;;;;;12.35;3.35;;;13.90;91.60;;;;;;5055229;28;20048;-48
2022/10/24 18:37:10;;;;;;;10.63;3.83;;;13.80;91.60;;;;;;5054454;28;20111;-48
2022/10/24 18:39:35;;;;;;;8.82;3.67;;;13.80;91.60;;;;;;5054768;28;20017;-48
2022/10/24 18:42:24;;;;;;;8.77;3.30;;;13.80;91.60;;;;;;5054664;28;20083;-48
2022/10/24 18:44:50;;;;;;;11.00;2.60;;;13.70;91.60;;;;;;5054533;28;20401;-47
2022/10/24 18:47:18;;;;;;;9.27;2.17;;;13.70;91.30;;;;;;5054868;28;20473;-51
2022/10/24 18:49:44;;;;;;;7.75;2.95;;;13.70;91.30;;;;;;5054930;28;20051;-49
2022/10/24 18:52:10;;;;;;;5.15;2.38;;;13.60;91.40;;;;;;5055050;28;20092;-47
2022/10/24 18:54:38;;;;;;;8.80;2.22;;;13.60;91.40;;;;;;5054392;28;20040;-49
2022/10/24 18:57:22;;;;;;;11.27;3.22;;;13.60;91.40;;;;;;5054550;28;20143;-50
2022/10/24 18:59:48;;;;;;;8.23;3.17;;;13.50;91.40;;;;;;5054714;28;20017;-50
2022/10/24 19:02:42;;;;;;;13.15;2.83;;;13.60;91.40;;;;;;5054003;28;20485;-50
2022/10/24 19:05:42;;;;;;;10.35;2.45;;;13.60;91.50;;;;;;5054532;28;20075;-49
2022/10/24 19:08:13;;;;;;;5.53;1.85;;;13.50;91.40;;;;;;5054421;28;20029;-49
2022/10/24 19:10:39;;;;;;;13.43;5.80;;;13.50;91.40;;;;;;5055584;28;20032;-51
2022/10/24 19:13:05;;;;;;;16.58;3.20;;;13.60;91.40;;;;;;5056367;28;20036;-48
2022/10/24 19:15:31;;;;;;;8.80;3.88;;;13.50;91.40;;;;;;5055435;28;20029;-49
2022/10/24 19:17:57;;;;;;;8.13;3.88;;;13.50;91.30;;;;;;5054469;28;20079;-49
2022/10/24 19:20:23;;;;;;;23.98;7.22;;;13.60;91.30;;;;;;5053857;28;20032;-49
2022/10/24 19:22:49;;;;;;;23.90;10.27;;;13.60;91.10;;;;;;5054385;28;20025;-50
2022/10/24 19:25:15;;;;;;;11.05;5.32;;;13.60;91.00;;;;;;5052716;28;20055;-39
2022/10/24 19:27:41;;;;;;;9.10;2.83;;;13.50;90.80;;;;;;5052571;28;20086;-40
2022/10/24 19:30:08;;;;;;;12.13;4.50;;;13.50;90.90;;;;;;5053763;28;20032;-40
2022/10/24 19:32:34;;;;;;;13.10;4.05;;;13.40;91.10;;;;;;5053804;28;20024;-40
2022/10/24 19:34:59;;;;;;;7.20;2.50;;;13.30;91.10;;;;;;5052188;28;20086;-38
2022/10/24 19:37:25;;;;;;;12.13;3.22;;;13.30;91.40;;;;;;5053964;28;20378;-39
2022/10/24 19:39:51;;;;;;;8.43;3.40;;;13.30;91.60;;;;;;5052932;28;20028;-39
2022/10/24 19:42:17;;;;;;;7.78;2.47;;;13.20;91.70;;;;;;5055171;28;20029;-39
2022/10/24 19:44:46;;;;;;;10.65;4.20;;;13.10;91.80;;;;;;5053614;28;20021;-39
2022/10/24 19:47:15;;;;;;;7.97;2.30;;;13.10;91.80;;;;;;5053723;28;20032;-39
2022/10/24 19:49:41;;;;;;;9.27;2.92;;;13.00;92.00;;;;;;5053538;28;20025;-39
2022/10/24 19:52:07;;;;;;;12.15;3.92;;;13.00;92.20;;;;;;5052699;28;20052;-38
2022/10/24 19:54:33;;;;;;;9.63;3.72;;;13.00;92.40;;;;;;5053716;28;20104;-38
2022/10/24 19:56:58;;;;;;;10.40;4.20;;;13.00;92.50;;;;;;5053763;28;20503;-40
2022/10/24 19:59:27;;;;;;;5.97;2.53;;;13.00;92.60;;;;;;5051942;28;20028;-39
2022/10/24 20:01:53;;;;;;;9.52;3.80;;;13.00;92.50;;;;;;5053523;28;20466;-39
2022/10/24 20:04:18;;;;;;;11.40;5.75;;;13.00;92.60;;;;;;5052437;28;20032;-39
2022/10/24 20:06:46;;;;;;;7.28;2.92;;;13.00;92.50;;;;;;5054970;28;20025;-38
2022/10/24 20:09:12;;;;;;;9.45;4.10;;;12.90;92.50;;;;;;5054399;28;20465;-39
2022/10/24 20:11:38;;;;;;;12.20;3.90;;;13.00;92.60;;;;;;5052785;28;20124;-39
2022/10/24 20:14:03;;;;;;;10.45;2.50;;;13.10;92.60;;;;;;5052857;28;20025;-39
2022/10/24 20:16:29;;;;;;;10.38;2.80;;;13.10;92.60;;;;;;5052839;28;20361;-40
2022/10/24 20:18:55;;;;;;;10.95;4.20;;;13.20;92.60;;;;;;5053632;28;20029;-39
2022/10/24 20:21:20;;;;;;;6.90;2.85;;;13.30;92.60;;;;;;5052950;28;20516;-39
2022/10/24 20:23:47;;;;;;;7.78;2.28;;;13.30;92.60;;;;;;5053309;28;20110;-39
2022/10/24 20:26:22;;;;;;;7.60;1.35;;;13.40;92.40;;;;;;5053094;28;20045;-40
2022/10/24 20:28:50;;;;;;;7.13;1.83;;;13.70;91.80;;;;;;5053123;28;20040;-39
2022/10/24 20:31:34;;;;;;;9.43;2.65;;;13.80;91.10;;;;;;5053034;28;20025;-39
2022/10/24 20:34:03;;;;;;;9.60;1.70;;;13.80;91.20;;;;;;5052759;28;20507;-39
2022/10/24 20:36:30;;;;;;;5.10;1.77;;;13.90;91.00;;;;;;5053148;28;20453;-39
2022/10/24 20:38:56;;;;;;;13.32;2.33;;;14.00;90.90;;;;;;5051714;28;20560;-47
2022/10/24 20:41:21;;;;;;;16.15;3.13;;;14.00;90.70;;;;;;5053125;28;20106;-49
2022/10/24 20:43:47;;;;;;;6.68;1.80;;;14.00;90.70;;;;;;5052506;28;20442;-47
2022/10/24 20:46:13;;;;;;;5.25;1.73;;;14.00;90.80;;;;;;5052729;28;20025;-50
2022/10/24 20:48:38;;;;;;;7.00;2.10;;;13.80;91.00;;;;;;5051242;28;20032;-48
2022/10/24 20:51:04;;;;;;;10.10;1.42;;;13.80;91.10;;;;;;5051193;28;20033;-48
2022/10/24 20:53:31;;;;;;;3.20;1.30;;;13.70;91.20;;;;;;5050967;28;20071;-50
2022/10/24 20:55:56;;;;;;;4.35;1.70;;;13.60;91.30;;;;;;5052490;28;20025;-48
2022/10/24 20:58:22;;;;;;;9.05;1.45;;;13.50;91.40;;;;;;5052619;28;20032;-50
2022/10/24 21:00:47;;;;;;;5.65;1.05;;;13.40;91.30;;;;;;5052420;28;20022;-49
2022/10/24 21:03:14;;;;;;;3.10;1.27;;;13.30;91.40;;;;;;5052418;28;20025;-49
2022/10/24 21:05:39;;;;;;;5.13;1.17;;;13.30;91.40;;;;;;5052740;28;20104;-54
2022/10/24 21:08:05;;;;;;;2.17;1.10;;;13.30;91.50;;;;;;5052374;28;20106;-48
2022/10/24 21:10:31;;;;;;;5.85;1.27;;;13.30;91.40;;;;;;5051024;28;20029;-48
2022/10/24 21:12:57;;;;;;;4.93;1.52;;;13.30;91.40;;;;;;5052285;28;20131;-49
2022/10/24 21:15:22;;;;;;;8.70;1.33;;;13.30;91.30;;;;;;5052196;28;20021;-48
2022/10/24 21:17:48;;;;;;;5.15;1.23;;;13.30;91.40;;;;;;5052164;28;20021;-50
2022/10/24 21:20:14;;;;;;;6.07;1.00;;;13.20;91.20;;;;;;5052203;28;20025;-49
2022/10/24 21:22:39;;;;;;;4.38;1.27;;;13.30;91.20;;;;;;5052104;28;20059;-48
2022/10/24 21:25:05;;;;;;;4.60;1.65;;;13.20;91.40;;;;;;5054548;28;20036;-49
2022/10/24 21:27:31;;;;;;;5.55;1.83;;;13.20;91.50;;;;;;5055943;28;20025;-48
2022/10/24 21:29:57;;;;;;;4.80;1.73;;;13.10;91.60;;;;;;5056134;28;20029;-49
2022/10/24 21:32:23;;;;;;;5.65;2.00;;;13.10;91.80;;;;;;5056057;28;20056;-48
2022/10/24 21:34:48;;;;;;;2.97;1.77;;;13.10;92.10;;;;;;5056081;28;20493;-48
2022/10/24 21:37:14;;;;;;;5.65;1.63;;;13.10;92.20;;;;;;5054236;28;20045;-50
2022/10/24 21:39:39;;;;;;;4.57;1.65;;;13.10;92.20;;;;;;5055835;28;20405;-48
2022/10/24 21:42:05;;;;;;;3.70;1.98;;;13.10;92.20;;;;;;5056195;28;20470;-48
2022/10/24 21:44:32;;;;;;;6.45;2.10;;;13.10;92.30;;;;;;5055690;28;20406;-48
2022/10/24 21:46:58;;;;;;;6.50;1.80;;;13.10;92.20;;;;;;5055697;28;20055;-46
2022/10/24 21:49:24;;;;;;;5.80;1.70;;;13.10;92.20;;;;;;5055572;28;20032;-50
2022/10/24 21:51:50;;;;;;;4.88;1.65;;;13.10;92.00;;;;;;5055920;28;20029;-50
2022/10/24 21:54:19;;;;;;;4.18;1.30;;;13.20;92.00;;;;;;5054571;28;20028;-48
2022/10/24 21:56:45;;;;;;;3.63;1.45;;;13.20;91.80;;;;;;5055754;28;20510;-48
2022/10/24 21:59:13;;;;;;;6.05;1.52;;;13.20;91.80;;;;;;5055751;28;20110;-48
2022/10/24 22:01:40;;;;;;;7.00;1.58;;;13.20;91.90;;;;;;5055939;28;20025;-49
2022/10/24 22:04:07;;;;;;;8.57;1.15;;;13.30;91.70;;;;;;5037587;28;20025;-47
2022/10/24 22:06:34;;;;;;;2.28;1.15;;;13.20;91.60;;;;;;5055185;28;20032;-52
2022/10/24 22:09:00;;;;;;;8.10;1.65;;;13.30;91.60;;;;;;5055227;28;20128;-47
2022/10/24 22:11:28;;;;;;;6.05;2.72;;;13.30;91.50;;;;;;5055122;28;20025;-49
2022/10/24 22:13:54;;;;;;;6.28;1.15;;;13.30;91.30;;;;;;5055244;28;20472;-48
2022/10/24 22:16:22;;;;;;;3.85;1.08;;;13.30;90.90;;;;;;5055500;28;20096;-49
2022/10/24 22:18:49;;;;;;;1.95;1.08;;;13.30;90.80;;;;;;5021062;28;20037;-50
2022/10/24 22:21:30;;;;;;;3.47;1.15;;;13.40;90.80;;;;;;5055196;28;20108;-48
2022/10/24 22:23:57;;;;;;;3.95;1.63;;;13.30;90.70;;;;;;5055369;28;20109;-48
2022/10/24 22:26:23;;;;;;;5.30;1.00;;;13.40;90.90;;;;;;5053892;28;20031;-47
2022/10/24 22:28:48;;;;;;;9.10;2.33;;;13.30;90.70;;;;;;5055177;28;20037;-52
2022/10/24 22:31:15;;;;;;;3.60;1.88;;;13.30;90.90;;;;;;5055672;28;20111;-48
2022/10/24 22:33:42;;;;;;;5.75;1.65;;;13.30;90.90;;;;;;5055129;28;20029;-47
2022/10/24 22:36:44;;;;;;;1.75;1.23;;;13.30;91.20;;;;;;5054956;28;20021;-49
2022/10/24 22:39:13;;;;;;;4.82;1.70;;;13.40;90.80;;;;;;5054557;28;20447;-49
2022/10/24 22:41:39;;;;;;;5.65;1.10;;;13.40;90.80;;;;;;5054886;28;20029;-49
2022/10/24 22:44:05;;;;;;;2.22;0.98;;;13.40;90.80;;;;;;5054614;28;20029;-49
2022/10/24 22:47:20;;;;;;;4.40;1.48;;;13.50;90.80;;;;;;5054902;28;20392;-49
2022/10/24 22:50:20;;;;;;;5.78;1.90;;;13.50;90.60;;;;;;5053993;28;20045;-47
2022/10/24 22:52:47;;;;;;;9.13;2.60;;;13.60;90.50;;;;;;5055328;28;20104;-49
2022/10/24 22:55:23;;;;;;;4.82;1.33;;;13.60;90.40;;;;;;5053477;28;20029;-51
2022/10/24 22:57:49;;;;;;;6.70;1.65;;;13.60;90.50;;;;;;5054620;28;20021;-49
2022/10/24 23:00:15;;;;;;;7.15;1.38;;;13.60;90.70;;;;;;5053181;28;20099;-49
2022/10/24 23:02:44;;;;;;;8.32;1.33;;;13.60;90.80;;;;;;5052970;28;20036;-52
2022/10/24 23:05:26;;;;;;;5.20;2.10;;;13.60;90.80;;;;;;5054410;28;20029;-49
2022/10/24 23:08:04;;;;;;;2.95;1.45;;;13.70;90.90;;;;;;5054334;28;20017;-48
2022/10/24 23:10:32;;;;;;;7.43;1.52;;;13.70;90.90;;;;;;5054401;28;20051;-51
2022/10/24 23:12:59;;;;;;;6.30;1.10;;;13.70;90.90;;;;;;5054404;28;20033;-48
2022/10/24 23:15:25;;;;;;;2.45;1.20;;;13.70;90.90;;;;;;5053978;28;20040;-48
2022/10/24 23:17:50;;;;;;;5.22;1.33;;;13.80;91.00;;;;;;5053899;28;20028;-48
2022/10/24 23:20:40;;;;;;;9.02;1.63;;;13.80;90.80;;;;;;5054453;28;20102;-48
2022/10/24 23:23:09;;;;;;;5.68;1.75;;;13.80;90.70;;;;;;5052813;28;20029;-49
2022/10/24 23:25:35;;;;;;;10.13;2.10;;;13.80;90.70;;;;;;5053822;28;20020;-48
2022/10/24 23:28:10;;;;;;;8.50;1.75;;;13.80;90.70;;;;;;5054097;28;20078;-49
2022/10/24 23:30:36;;;;;;;12.75;1.98;;;13.80;90.60;;;;;;5053924;28;20021;-48